Time;durP1;ratioP1;P1;durP2;ratioP2;P2;SDS_P1;SDS_P2;PMS_P1;PMS_P2;Temp;Humidity;BMP_temperature;BMP_pressure;BME280_temperature;BME280_humidity;BME280_pressure;Samples;Min_cycle;Max_cycle;Signal;HPM_P1;HPM_P2
2023/03/14 00:00:35;;;;;;;14.43;7.05;;;;;;;;;;10366110;28;20033;-71
2023/03/14 00:05:35;;;;;;;12.27;6.75;;;;;;;;;;10389600;28;20408;-71
2023/03/14 00:10:36;;;;;;;13.23;8.37;;;;;;;;;;10387653;28;20037;-70
2023/03/14 00:15:37;;;;;;;14.93;8.10;;;;;;;;;;10386959;28;20032;-73
2023/03/14 00:20:37;;;;;;;15.55;8.23;;;;;;;;;;10387431;28;20030;-71
2023/03/14 00:25:37;;;;;;;14.07;7.50;;;;;;;;;;10387174;28;20502;-75
2023/03/14 00:30:37;;;;;;;12.80;6.80;;;;;;;;;;10387304;28;20087;-70
2023/03/14 00:35:38;;;;;;;11.13;6.97;;;;;;;;;;10386196;28;20044;-73
2023/03/14 00:40:39;;;;;;;13.07;7.22;;;;;;;;;;10386581;28;20041;-72
2023/03/14 00:45:39;;;;;;;12.82;8.07;;;;;;;;;;10385524;28;20041;-71
2023/03/14 00:50:40;;;;;;;13.63;6.88;;;;;;;;;;10385460;28;20515;-71
2023/03/14 00:55:42;;;;;;;10.02;6.68;;;;;;;;;;10386168;28;20040;-71
2023/03/14 01:00:43;;;;;;;12.85;7.25;;;;;;;;;;10385790;28;20376;-71
2023/03/14 01:05:43;;;;;;;9.93;6.57;;;;;;;;;;10369527;28;20049;-71
2023/03/14 01:10:43;;;;;;;16.67;6.95;;;;;;;;;;10385071;28;20172;-73
2023/03/14 01:15:44;;;;;;;18.02;7.07;;;;;;;;;;10385058;28;20030;-72
2023/03/14 01:20:44;;;;;;;12.18;6.75;;;;;;;;;;10385024;28;20033;-73
2023/03/14 01:25:44;;;;;;;9.75;6.60;;;;;;;;;;10384072;28;20095;-72
2023/03/14 01:30:45;;;;;;;11.47;7.87;;;;;;;;;;10385065;28;20037;-71
2023/03/14 01:35:45;;;;;;;13.27;7.30;;;;;;;;;;10384301;28;20041;-71
2023/03/14 01:40:46;;;;;;;13.60;8.23;;;;;;;;;;10383936;28;20148;-73
2023/03/14 01:45:52;;;;;;;10.23;6.78;;;;;;;;;;10383177;28;20431;-71
2023/03/14 01:50:53;;;;;;;14.63;6.90;;;;;;;;;;10383415;28;20392;-71
2023/03/14 01:55:56;;;;;;;13.80;7.40;;;;;;;;;;10382410;28;20053;-71
2023/03/14 02:00:57;;;;;;;12.63;7.65;;;;;;;;;;10398806;28;20527;-72
2023/03/14 02:06:00;;;;;;;14.98;7.68;;;;;;;;;;10366179;28;20049;-72
2023/03/14 02:11:00;;;;;;;16.13;8.48;;;;;;;;;;10383363;28;20101;-72
2023/03/14 02:16:00;;;;;;;23.40;11.30;;;;;;;;;;10364891;28;20037;-71
2023/03/14 02:21:05;;;;;;;28.77;15.38;;;;;;;;;;10382485;28;20040;-72
2023/03/14 02:26:08;;;;;;;32.88;14.43;;;;;;;;;;10381275;28;20103;-71
2023/03/14 02:31:08;;;;;;;28.55;15.85;;;;;;;;;;10382218;28;20047;-73
2023/03/14 02:36:11;;;;;;;29.85;15.82;;;;;;;;;;10381978;28;20380;-73
2023/03/14 02:41:11;;;;;;;32.15;15.45;;;;;;;;;;10381857;28;20088;-73
2023/03/14 02:46:17;;;;;;;26.55;13.90;;;;;;;;;;10381518;28;20071;-72
2023/03/14 02:51:18;;;;;;;27.60;14.75;;;;;;;;;;10381747;28;20119;-73
2023/03/14 02:56:18;;;;;;;34.22;16.30;;;;;;;;;;10381358;28;20478;-73
2023/03/14 03:01:18;;;;;;;35.13;17.67;;;;;;;;;;10380903;28;20473;-71
2023/03/14 03:06:19;;;;;;;30.60;15.20;;;;;;;;;;10367049;28;20041;-73
2023/03/14 03:11:19;;;;;;;33.97;15.98;;;;;;;;;;10380166;28;20074;-72
2023/03/14 03:16:19;;;;;;;29.25;15.18;;;;;;;;;;10380861;28;20084;-72
2023/03/14 03:21:23;;;;;;;31.42;15.18;;;;;;;;;;10380590;28;20514;-72
2023/03/14 03:26:23;;;;;;;30.02;15.90;;;;;;;;;;10362076;28;20041;-72
2023/03/14 03:31:23;;;;;;;27.63;15.70;;;;;;;;;;10380119;28;20037;-71
2023/03/14 03:36:24;;;;;;;28.23;15.30;;;;;;;;;;10380692;28;20396;-71
2023/03/14 03:41:25;;;;;;;29.70;15.55;;;;;;;;;;10379677;28;20099;-71
2023/03/14 03:46:25;;;;;;;35.07;14.23;;;;;;;;;;10379730;28;20044;-73
2023/03/14 03:51:26;;;;;;;31.67;15.60;;;;;;;;;;10362133;28;20037;-71
2023/03/14 03:56:26;;;;;;;28.77;16.25;;;;;;;;;;10379286;28;20045;-72
2023/03/14 04:01:26;;;;;;;29.70;15.75;;;;;;;;;;10379614;28;20037;-72
2023/03/14 04:06:27;;;;;;;35.83;16.43;;;;;;;;;;10379211;28;20034;-72
2023/03/14 04:11:27;;;;;;;29.33;15.93;;;;;;;;;;10378941;28;20033;-72
2023/03/14 04:16:27;;;;;;;31.60;14.45;;;;;;;;;;10368782;28;20268;-73
2023/03/14 04:21:28;;;;;;;32.70;14.60;;;;;;;;;;10370671;28;20056;-71
2023/03/14 04:26:28;;;;;;;33.63;16.25;;;;;;;;;;10377472;28;20456;-73
2023/03/14 04:31:28;;;;;;;30.20;15.30;;;;;;;;;;10375582;28;20120;-71
2023/03/14 04:36:28;;;;;;;29.40;14.13;;;;;;;;;;10376244;28;20428;-72
2023/03/14 04:41:29;;;;;;;35.93;17.10;;;;;;;;;;10375633;28;20056;-71
2023/03/14 04:46:29;;;;;;;34.53;17.75;;;;;;;;;;10375096;28;20037;-72
2023/03/14 04:51:29;;;;;;;27.88;14.90;;;;;;;;;;10380501;28;20037;-72
2023/03/14 04:56:30;;;;;;;31.45;16.05;;;;;;;;;;10384973;28;20503;-72
2023/03/14 05:01:30;;;;;;;27.80;16.75;;;;;;;;;;10385296;28;20049;-72
2023/03/14 05:06:31;;;;;;;32.80;17.43;;;;;;;;;;10361640;28;20035;-72
2023/03/14 05:11:32;;;;;;;31.58;15.95;;;;;;;;;;10374211;28;20025;-72
2023/03/14 05:16:32;;;;;;;30.98;15.80;;;;;;;;;;10374578;28;20100;-78
2023/03/14 05:21:33;;;;;;;31.93;15.97;;;;;;;;;;10355887;28;20041;-73
2023/03/14 05:26:33;;;;;;;45.00;17.05;;;;;;;;;;10374060;28;20059;-73
2023/03/14 05:31:33;;;;;;;29.17;15.85;;;;;;;;;;10371416;28;20040;-74
2023/03/14 05:36:33;;;;;;;22.30;11.50;;;;;;;;;;10376076;28;20130;-72
2023/03/14 05:41:34;;;;;;;13.05;8.45;;;;;;;;;;10375285;28;20042;-72
2023/03/14 05:46:34;;;;;;;17.63;7.03;;;;;;;;;;10371569;28;20041;-69
2023/03/14 05:51:35;;;;;;;12.93;7.28;;;;;;;;;;10373732;28;20302;-74
2023/03/14 05:56:36;;;;;;;15.02;7.68;;;;;;;;;;10373079;28;20026;-72
2023/03/14 06:01:36;;;;;;;13.50;8.45;;;;;;;;;;10369034;28;20484;-72
2023/03/14 06:06:36;;;;;;;18.10;8.25;;;;;;;;;;10374748;28;20108;-72
2023/03/14 06:11:36;;;;;;;16.70;8.65;;;;;;;;;;10372399;28;20076;-72
2023/03/14 06:16:37;;;;;;;13.32;7.63;;;;;;;;;;10375181;28;20367;-74
2023/03/14 06:21:37;;;;;;;16.08;9.13;;;;;;;;;;10371280;28;20037;-72
2023/03/14 06:26:37;;;;;;;19.83;11.13;;;;;;;;;;10387105;28;20677;-73
2023/03/14 06:31:38;;;;;;;23.93;11.37;;;;;;;;;;10371622;28;20527;-72
2023/03/14 06:36:38;;;;;;;22.02;9.13;;;;;;;;;;10389249;28;20487;-73
2023/03/14 06:41:38;;;;;;;16.42;7.85;;;;;;;;;;10388188;28;20049;-72
2023/03/14 06:46:39;;;;;;;15.67;7.63;;;;;;;;;;10369701;28;20111;-72
2023/03/14 06:51:39;;;;;;;17.92;7.28;;;;;;;;;;10372898;28;20042;-73
2023/03/14 06:56:39;;;;;;;12.07;6.55;;;;;;;;;;10372887;28;20056;-71
2023/03/14 07:01:40;;;;;;;16.05;6.75;;;;;;;;;;10373068;28;20045;-72
2023/03/14 07:06:44;;;;;;;18.65;7.80;;;;;;;;;;10379287;28;20496;-73
2023/03/14 07:11:44;;;;;;;15.93;7.93;;;;;;;;;;10373779;28;20138;-72
2023/03/14 07:16:45;;;;;;;13.93;7.67;;;;;;;;;;10372688;28;20450;-73
2023/03/14 07:21:45;;;;;;;18.40;8.32;;;;;;;;;;10373141;28;20029;-73
2023/03/14 07:26:45;;;;;;;16.42;8.18;;;;;;;;;;10376447;28;20528;-73
2023/03/14 07:31:46;;;;;;;13.27;7.93;;;;;;;;;;10373125;28;20037;-73
2023/03/14 07:36:46;;;;;;;15.45;7.85;;;;;;;;;;10372625;28;20484;-72
2023/03/14 07:41:46;;;;;;;13.98;7.90;;;;;;;;;;10357059;28;20080;-72
2023/03/14 07:46:46;;;;;;;16.13;9.47;;;;;;;;;;10371195;28;20108;-72
2023/03/14 07:51:47;;;;;;;20.30;8.85;;;;;;;;;;10371918;28;20223;-73
2023/03/14 07:56:47;;;;;;;14.45;8.98;;;;;;;;;;10371140;28;20445;-73
2023/03/14 08:01:48;;;;;;;24.48;8.30;;;;;;;;;;10372038;28;20060;-72
2023/03/14 08:06:48;;;;;;;16.70;9.10;;;;;;;;;;10386963;28;20029;-72
2023/03/14 08:11:48;;;;;;;21.45;11.60;;;;;;;;;;10370467;28;20113;-73
2023/03/14 08:16:49;;;;;;;18.23;9.40;;;;;;;;;;10378725;28;20396;-73
2023/03/14 08:21:49;;;;;;;28.85;11.98;;;;;;;;;;10372242;28;20809;-73
2023/03/14 08:26:50;;;;;;;20.67;11.30;;;;;;;;;;10376576;28;20084;-73
2023/03/14 08:31:50;;;;;;;25.73;12.45;;;;;;;;;;10361917;28;20040;-73
2023/03/14 08:36:50;;;;;;;21.67;9.60;;;;;;;;;;10378399;28;20037;-73
2023/03/14 08:41:50;;;;;;;14.43;8.98;;;;;;;;;;10378533;28;20084;-73
2023/03/14 08:46:51;;;;;;;21.42;9.68;;;;;;;;;;10377349;28;20029;-72
2023/03/14 08:51:51;;;;;;;18.23;10.13;;;;;;;;;;10375627;28;20041;-73
2023/03/14 08:56:51;;;;;;;22.70;10.23;;;;;;;;;;10377026;28;20092;-72
2023/03/14 09:01:52;;;;;;;20.45;10.88;;;;;;;;;;10393687;28;20466;-72
2023/03/14 09:06:52;;;;;;;22.10;9.77;;;;;;;;;;10378044;28;20041;-72
2023/03/14 09:11:53;;;;;;;18.00;9.93;;;;;;;;;;10378343;28;20068;-72
2023/03/14 09:16:53;;;;;;;22.77;9.70;;;;;;;;;;10377744;28;20091;-72
2023/03/14 09:21:53;;;;;;;19.92;9.18;;;;;;;;;;10377848;28;20037;-72
2023/03/14 09:26:54;;;;;;;21.02;9.18;;;;;;;;;;10375052;28;20725;-73
2023/03/14 09:31:55;;;;;;;14.00;8.95;;;;;;;;;;10376776;28;20573;-73
2023/03/14 09:36:55;;;;;;;19.40;8.40;;;;;;;;;;10373643;28;20035;-73
2023/03/14 09:41:57;;;;;;;16.08;7.45;;;;;;;;;;10374521;28;20030;-73
2023/03/14 09:47:00;;;;;;;19.70;8.45;;;;;;;;;;10377281;28;20041;-73
2023/03/14 09:52:02;;;;;;;21.02;7.65;;;;;;;;;;10383667;28;20488;-72
2023/03/14 09:57:03;;;;;;;29.73;8.32;;;;;;;;;;10374755;28;20376;-73
2023/03/14 10:02:14;;;;;;;12.77;7.38;;;;;;;;;;10376818;28;20645;-72
2023/03/14 10:07:16;;;;;;;11.70;6.07;;;;;;;;;;10373483;28;20052;-72
2023/03/14 10:12:17;;;;;;;13.82;6.05;;;;;;;;;;10375467;28;20026;-72
2023/03/14 10:17:19;;;;;;;9.27;5.28;;;;;;;;;;10373847;28;20876;-72
2023/03/14 10:22:19;;;;;;;13.77;5.90;;;;;;;;;;10381227;28;20029;-73
2023/03/14 10:27:21;;;;;;;13.23;5.65;;;;;;;;;;10373826;28;20736;-72
2023/03/14 10:32:22;;;;;;;7.90;3.85;;;;;;;;;;10374931;28;20169;-73
2023/03/14 10:37:25;;;;;;;9.75;3.97;;;;;;;;;;10374364;28;20033;-74
2023/03/14 10:42:31;;;;;;;8.55;3.25;;;;;;;;;;10374484;28;20041;-73
2023/03/14 10:47:32;;;;;;;5.80;3.10;;;;;;;;;;10374414;28;20051;-73
2023/03/14 10:52:32;;;;;;;7.25;2.90;;;;;;;;;;10374794;28;20048;-73
2023/03/14 10:57:37;;;;;;;13.77;3.70;;;;;;;;;;10388786;28;20033;-73
2023/03/14 11:02:38;;;;;;;4.45;2.60;;;;;;;;;;10373938;28;20033;-73
2023/03/14 11:07:38;;;;;;;7.63;3.30;;;;;;;;;;10373457;28;20490;-73
2023/03/14 11:12:41;;;;;;;5.53;2.97;;;;;;;;;;10373798;28;20030;-73
2023/03/14 11:17:53;;;;;;;6.85;2.67;;;;;;;;;;10374900;28;20480;-73
2023/03/14 11:23:04;;;;;;;4.88;2.85;;;;;;;;;;10373669;28;20163;-73
2023/03/14 11:28:13;;;;;;;6.50;2.80;;;;;;;;;;10394702;28;20105;-72
2023/03/14 11:33:15;;;;;;;4.18;2.53;;;;;;;;;;10370955;28;20040;-72
2023/03/14 11:38:42;;;;;;;8.02;2.78;;;;;;;;;;10373663;28;20045;-72
2023/03/14 11:43:53;;;;;;;4.75;2.47;;;;;;;;;;10367615;28;20124;-72
2023/03/14 11:49:05;;;;;;;4.90;2.63;;;;;;;;;;10373042;28;20152;-73
2023/03/14 11:54:05;;;;;;;6.70;2.58;;;;;;;;;;10372853;28;20120;-73
2023/03/14 11:59:12;;;;;;;5.97;2.60;;;;;;;;;;10374892;28;20033;-73
2023/03/14 12:04:19;;;;;;;11.40;2.78;;;;;;;;;;10363522;28;20132;-74
2023/03/14 12:09:20;;;;;;;6.27;2.93;;;;;;;;;;10380376;28;20069;-70
2023/03/14 12:14:25;;;;;;;7.82;3.10;;;;;;;;;;10371332;28;20093;-69
2023/03/14 12:19:27;;;;;;;11.95;3.05;;;;;;;;;;10374031;28;20040;-69
2023/03/14 12:24:30;;;;;;;4.47;2.00;;;;;;;;;;10373566;28;20034;-71
2023/03/14 12:29:43;;;;;;;6.45;3.22;;;;;;;;;;10377276;28;20041;-69
2023/03/14 12:34:45;;;;;;;4.85;2.42;;;;;;;;;;10371116;28;20451;-70
2023/03/14 12:40:05;;;;;;;4.55;2.03;;;;;;;;;;10366074;28;20130;-69
2023/03/14 12:45:15;;;;;;;7.28;2.03;;;;;;;;;;10372648;28;20034;-69
2023/03/14 12:50:19;;;;;;;4.45;2.38;;;;;;;;;;10369609;28;20119;-70
2023/03/14 12:55:38;;;;;;;4.35;2.13;;;;;;;;;;10374719;28;20081;-69
2023/03/14 13:00:40;;;;;;;6.63;2.35;;;;;;;;;;10369224;28;20162;-75
2023/03/14 13:05:54;;;;;;;3.90;2.00;;;;;;;;;;10372300;28;20029;-73
2023/03/14 13:10:55;;;;;;;10.02;2.35;;;;;;;;;;10370621;28;20482;-74
2023/03/14 13:16:00;;;;;;;4.78;2.00;;;;;;;;;;10372514;28;20038;-75
2023/03/14 13:21:10;;;;;;;3.75;1.77;;;;;;;;;;10371910;28;20041;-75
2023/03/14 13:26:14;;;;;;;7.35;1.60;;;;;;;;;;10368464;28;20619;-73
2023/03/14 13:31:20;;;;;;;3.80;2.75;;;;;;;;;;10370836;28;20118;-74
2023/03/14 13:36:21;;;;;;;5.10;1.77;;;;;;;;;;10367491;28;20239;-74
2023/03/14 13:41:23;;;;;;;4.60;2.97;;;;;;;;;;10377236;28;21905;-73
2023/03/14 13:46:25;;;;;;;1.50;1.33;;;;;;;;;;10371778;28;20033;-73
2023/03/14 13:51:28;;;;;;;9.13;1.90;;;;;;;;;;10369751;28;20461;-75
2023/03/14 13:56:30;;;;;;;3.97;1.92;;;;;;;;;;10372130;28;20033;-76
2023/03/14 14:01:31;;;;;;;3.58;1.70;;;;;;;;;;10369278;28;20396;-75
2023/03/14 14:06:32;;;;;;;4.60;1.85;;;;;;;;;;10371771;28;20030;-76
2023/03/14 14:11:39;;;;;;;3.97;2.15;;;;;;;;;;10384878;28;20033;-74
2023/03/14 14:16:41;;;;;;;7.47;2.22;;;;;;;;;;10365243;28;20041;-75
2023/03/14 14:21:42;;;;;;;5.13;1.80;;;;;;;;;;10370804;28;20515;-74
2023/03/14 14:26:52;;;;;;;4.68;2.20;;;;;;;;;;10368190;28;20029;-74
2023/03/14 14:32:19;;;;;;;7.68;1.98;;;;;;;;;;10366424;28;20118;-74
2023/03/14 14:37:27;;;;;;;10.65;1.73;;;;;;;;;;10367338;28;20128;-75
2023/03/14 14:42:27;;;;;;;;;;;;;;;;;;10368825;28;20162;-74
2023/03/14 14:47:28;;;;;;;8.65;1.70;;;;;;;;;;10370198;28;19913;-75
2023/03/14 14:52:34;;;;;;;1.92;1.60;;;;;;;;;;10367482;28;20116;-76
2023/03/14 14:57:40;;;;;;;2.15;1.35;;;;;;;;;;10370206;28;20034;-74
2023/03/14 15:02:46;;;;;;;2.88;1.33;;;;;;;;;;10372795;28;20040;-73
2023/03/14 15:07:46;;;;;;;8.40;4.28;;;;;;;;;;10364806;28;20108;-73
2023/03/14 15:12:49;;;;;;;4.65;1.45;;;;;;;;;;10371669;28;20029;-74
2023/03/14 15:17:50;;;;;;;7.40;1.25;;;;;;;;;;10367648;28;20683;-74
2023/03/14 15:22:50;;;;;;;5.20;1.65;;;;;;;;;;10365815;28;20038;-73
2023/03/14 15:27:50;;;;;;;4.93;1.67;;;;;;;;;;10346506;28;20032;-75
2023/03/14 15:32:51;;;;;;;3.67;2.10;;;;;;;;;;10367189;28;20151;-75
2023/03/14 15:37:51;;;;;;;4.47;1.58;;;;;;;;;;10377407;28;20049;-74
2023/03/14 15:42:51;;;;;;;3.33;1.88;;;;;;;;;;10364210;28;20500;-74
2023/03/14 15:47:52;;;;;;;6.93;1.98;;;;;;;;;;10367831;28;20096;-74
2023/03/14 15:52:52;;;;;;;9.03;2.30;;;;;;;;;;10365362;28;20753;-74
2023/03/14 15:57:52;;;;;;;3.07;1.80;;;;;;;;;;10364205;28;20268;-75
2023/03/14 16:02:53;;;;;;;4.03;2.28;;;;;;;;;;10365146;28;20064;-73
2023/03/14 16:07:53;;;;;;;4.25;2.40;;;;;;;;;;10364265;28;20171;-74
2023/03/14 16:12:53;;;;;;;3.83;2.78;;;;;;;;;;10364397;28;20129;-75
2023/03/14 16:17:54;;;;;;;4.33;2.87;;;;;;;;;;10368014;28;20029;-75
2023/03/14 16:22:55;;;;;;;8.25;2.80;;;;;;;;;;10364155;28;20280;-75
2023/03/14 16:27:55;;;;;;;7.68;3.15;;;;;;;;;;10365032;28;20435;-76
2023/03/14 16:32:57;;;;;;;8.00;2.70;;;;;;;;;;10366694;28;20373;-74
2023/03/14 16:37:59;;;;;;;5.78;2.58;;;;;;;;;;10355897;28;20133;-73
2023/03/14 16:42:59;;;;;;;8.90;3.05;;;;;;;;;;10366222;28;20516;-75
2023/03/14 16:47:59;;;;;;;6.37;3.30;;;;;;;;;;10372618;28;20156;-75
2023/03/14 16:53:01;;;;;;;9.10;3.60;;;;;;;;;;10373458;28;20029;-75
2023/03/14 16:58:01;;;;;;;9.18;3.88;;;;;;;;;;10370095;28;20041;-71
2023/03/14 17:03:02;;;;;;;7.28;3.92;;;;;;;;;;10375341;28;20033;-73
2023/03/14 17:08:03;;;;;;;9.60;4.38;;;;;;;;;;10373959;28;20103;-75
2023/03/14 17:13:03;;;;;;;7.75;3.50;;;;;;;;;;10372486;28;20056;-75
2023/03/14 17:18:04;;;;;;;10.38;3.50;;;;;;;;;;10368127;28;20057;-73
2023/03/14 17:23:04;;;;;;;6.65;2.85;;;;;;;;;;10372641;28;20542;-71
2023/03/14 17:28:04;;;;;;;5.38;3.17;;;;;;;;;;10385988;28;20055;-72
2023/03/14 17:33:05;;;;;;;9.65;4.20;;;;;;;;;;10368283;28;20029;-72
2023/03/14 17:38:05;;;;;;;9.98;3.80;;;;;;;;;;10372587;28;20052;-71
2023/03/14 17:43:05;;;;;;;7.37;3.90;;;;;;;;;;10367752;28;20042;-72
2023/03/14 17:48:06;;;;;;;7.63;3.65;;;;;;;;;;10372990;28;20067;-72
2023/03/14 17:53:06;;;;;;;9.90;3.53;;;;;;;;;;10384082;28;20021;-71
2023/03/14 17:58:06;;;;;;;7.53;3.47;;;;;;;;;;10369690;28;20107;-71
2023/03/14 18:03:06;;;;;;;4.13;2.57;;;;;;;;;;10368107;28;20485;-71
2023/03/14 18:08:10;;;;;;;7.43;3.38;;;;;;;;;;10370367;28;20025;-71
2023/03/14 18:13:10;;;;;;;5.05;2.80;;;;;;;;;;10368520;28;20048;-71
2023/03/14 18:18:11;;;;;;;4.77;2.37;;;;;;;;;;10385117;28;20032;-70
2023/03/14 18:23:11;;;;;;;8.48;3.42;;;;;;;;;;10383973;28;20026;-73
2023/03/14 18:28:11;;;;;;;5.28;2.70;;;;;;;;;;10374059;28;20028;-71
2023/03/14 18:38:16;;;;;;;5.10;2.53;;;;;;;;;;10291806;28;20054;-74
2023/03/14 18:43:16;;;;;;;5.30;2.45;;;;;;;;;;10295270;28;20061;-72
2023/03/14 18:48:17;;;;;;;4.18;2.20;;;;;;;;;;10295946;28;20042;-72
2023/03/14 18:53:17;;;;;;;4.47;2.30;;;;;;;;;;10288734;28;20474;-72
2023/03/14 18:58:22;;;;;;;5.70;2.75;;;;;;;;;;10287086;28;20065;-72
2023/03/14 19:03:24;;;;;;;5.35;2.85;;;;;;;;;;10290888;28;20213;-82
2023/03/14 19:08:26;;;;;;;5.68;2.70;;;;;;;;;;10290662;28;20397;-69
2023/03/14 19:13:26;;;;;;;5.32;3.30;;;;;;;;;;10283801;28;20054;-72
2023/03/14 19:18:28;;;;;;;6.37;3.80;;;;;;;;;;10294310;28;20420;-83
2023/03/14 19:23:29;;;;;;;7.70;4.38;;;;;;;;;;10271567;28;20533;-80
2023/03/14 19:28:30;;;;;;;7.82;4.00;;;;;;;;;;10291967;28;20029;-70
2023/03/14 19:33:31;;;;;;;5.43;3.72;;;;;;;;;;10286355;28;20481;-74
2023/03/14 19:38:31;;;;;;;9.98;4.85;;;;;;;;;;10284400;28;20062;-74
2023/03/14 19:43:31;;;;;;;10.90;5.05;;;;;;;;;;10285522;28;20642;-76
2023/03/14 19:48:32;;;;;;;10.30;5.32;;;;;;;;;;10289315;28;20038;-79
2023/03/14 19:53:34;;;;;;;12.57;5.60;;;;;;;;;;10287388;28;20038;-72
2023/03/14 19:58:34;;;;;;;10.43;5.10;;;;;;;;;;10291822;28;20401;-71
2023/03/14 20:03:35;;;;;;;12.07;6.38;;;;;;;;;;10291703;28;20046;-72
2023/03/14 20:08:35;;;;;;;9.27;5.88;;;;;;;;;;10287816;28;20492;-71
2023/03/14 20:13:36;;;;;;;11.38;5.60;;;;;;;;;;10286918;28;20456;-74
2023/03/14 20:18:36;;;;;;;12.77;5.82;;;;;;;;;;10289630;28;20042;-72
2023/03/14 20:23:36;;;;;;;16.02;7.03;;;;;;;;;;10294793;28;20043;-72
2023/03/14 20:28:37;;;;;;;9.63;5.80;;;;;;;;;;10299480;28;20035;-75
2023/03/14 20:33:37;;;;;;;13.23;6.78;;;;;;;;;;10298791;28;20046;-77
2023/03/14 20:38:37;;;;;;;12.77;6.95;;;;;;;;;;10300392;28;20034;-76
2023/03/14 20:43:38;;;;;;;13.25;6.47;;;;;;;;;;10301047;28;20404;-72
2023/03/14 20:48:38;;;;;;;15.27;6.55;;;;;;;;;;10300096;28;20049;-78
2023/03/14 20:53:39;;;;;;;10.05;6.28;;;;;;;;;;10303485;28;20033;-84
2023/03/14 20:58:40;;;;;;;11.40;6.68;;;;;;;;;;10324055;23;20316;-92
2023/03/14 21:03:41;;;;;;;13.25;7.45;;;;;;;;;;10346284;28;20033;-93
2023/03/14 21:08:45;;;;;;;12.13;6.82;;;;;;;;;;10351056;28;20362;-91
2023/03/14 21:14:06;;;;;;;11.70;7.00;;;;;;;;;;10314735;28;20030;-94
2023/03/14 21:19:44;;;;;;;13.27;6.65;;;;;;;;;;10347330;28;20039;-91
2023/03/14 21:24:47;;;;;;;9.55;5.80;;;;;;;;;;10364548;28;20033;-93
2023/03/14 21:29:48;;;;;;;11.70;6.72;;;;;;;;;;10328203;28;20536;-91
2023/03/14 21:35:06;;;;;;;11.43;6.75;;;;;;;;;;10347010;28;20030;-91
2023/03/14 21:40:10;;;;;;;15.88;7.68;;;;;;;;;;10348411;28;20039;-92
2023/03/14 21:45:11;;;;;;;10.23;5.47;;;;;;;;;;10358327;23;20053;-69
2023/03/14 21:50:13;;;;;;;15.02;6.60;;;;;;;;;;10327169;28;20061;-72
2023/03/14 21:55:16;;;;;;;9.77;6.13;;;;;;;;;;10320363;28;20021;-74
2023/03/14 22:00:18;;;;;;;17.27;6.18;;;;;;;;;;10341248;28;20076;-70
2023/03/14 22:05:20;;;;;;;9.50;5.65;;;;;;;;;;10344096;28;20037;-74
2023/03/14 22:10:20;;;;;;;9.35;5.00;;;;;;;;;;10346196;28;20121;-77
2023/03/14 22:15:20;;;;;;;14.30;6.15;;;;;;;;;;10344879;28;20022;-74
2023/03/14 22:20:21;;;;;;;10.73;5.70;;;;;;;;;;10348674;28;20104;-72
2023/03/14 22:25:21;;;;;;;13.00;5.82;;;;;;;;;;10337159;28;20048;-72
2023/03/14 22:30:22;;;;;;;13.63;6.07;;;;;;;;;;10343278;28;20814;-73
2023/03/14 22:35:22;;;;;;;9.20;5.10;;;;;;;;;;10348431;28;20038;-72
2023/03/14 22:40:23;;;;;;;15.57;5.22;;;;;;;;;;10335847;28;20049;-72
2023/03/14 22:45:23;;;;;;;10.63;4.97;;;;;;;;;;10337465;28;20065;-72
2023/03/14 22:50:23;;;;;;;9.97;4.90;;;;;;;;;;10339455;28;20045;-72
2023/03/14 22:55:24;;;;;;;14.20;4.80;;;;;;;;;;10340030;28;20797;-72
2023/03/14 23:00:25;;;;;;;7.73;3.93;;;;;;;;;;10339204;28;20277;-71
2023/03/14 23:05:26;;;;;;;8.02;3.70;;;;;;;;;;10340911;28;20277;-72
2023/03/14 23:10:26;;;;;;;8.60;4.57;;;;;;;;;;10340270;28;20720;-71
2023/03/14 23:15:27;;;;;;;7.43;4.07;;;;;;;;;;10339825;28;20057;-72
2023/03/14 23:20:28;;;;;;;7.13;4.37;;;;;;;;;;10339773;28;20488;-72
2023/03/14 23:25:28;;;;;;;7.70;4.13;;;;;;;;;;10339625;28;20515;-72
2023/03/14 23:30:28;;;;;;;7.47;3.40;;;;;;;;;;10335315;28;20401;-72
2023/03/14 23:35:29;;;;;;;7.70;4.30;;;;;;;;;;10329513;28;20033;-72
2023/03/14 23:40:29;;;;;;;8.73;4.32;;;;;;;;;;10339935;28;20034;-72
2023/03/14 23:45:30;;;;;;;7.40;4.88;;;;;;;;;;10353695;28;20147;-72
2023/03/14 23:50:30;;;;;;;7.57;4.20;;;;;;;;;;10354930;28;20480;-72
2023/03/14 23:55:30;;;;;;;6.00;4.20;;;;;;;;;;10336763;28;20492;-72
